sensor_id;sensor_type;location;lat;lon;timestamp;P1;durP1;ratioP1;P2;durP2;ratioP2
46363;SDS011;32071;49.036;9.344;2023-08-06T00:01:48;4.70;;;4.30;;
46363;SDS011;32071;49.036;9.344;2023-08-06T00:04:14;5.37;;;4.53;;
46363;SDS011;32071;49.036;9.344;2023-08-06T00:06:40;5.40;;;4.90;;
46363;SDS011;32071;49.036;9.344;2023-08-06T00:09:05;5.70;;;4.90;;
46363;SDS011;32071;49.036;9.344;2023-08-06T00:11:31;5.20;;;4.70;;
46363;SDS011;32071;49.036;9.344;2023-08-06T00:13:56;5.37;;;4.87;;
46363;SDS011;32071;49.036;9.344;2023-08-06T00:16:22;10.60;;;4.57;;
46363;SDS011;32071;49.036;9.344;2023-08-06T00:18:48;5.83;;;4.80;;
46363;SDS011;32071;49.036;9.344;2023-08-06T00:21:13;5.93;;;5.10;;
46363;SDS011;32071;49.036;9.344;2023-08-06T00:23:39;7.90;;;4.90;;
46363;SDS011;32071;49.036;9.344;2023-08-06T00:26:05;5.20;;;4.53;;
46363;SDS011;32071;49.036;9.344;2023-08-06T00:28:31;8.43;;;5.33;;
46363;SDS011;32071;49.036;9.344;2023-08-06T00:30:56;7.90;;;5.17;;
46363;SDS011;32071;49.036;9.344;2023-08-06T00:33:22;5.53;;;4.93;;
46363;SDS011;32071;49.036;9.344;2023-08-06T00:35:48;7.47;;;5.33;;
46363;SDS011;32071;49.036;9.344;2023-08-06T00:38:14;5.43;;;4.90;;
46363;SDS011;32071;49.036;9.344;2023-08-06T00:40:40;5.10;;;4.40;;
46363;SDS011;32071;49.036;9.344;2023-08-06T00:43:05;5.23;;;4.73;;
46363;SDS011;32071;49.036;9.344;2023-08-06T00:45:33;10.97;;;5.20;;
46363;SDS011;32071;49.036;9.344;2023-08-06T00:48:00;7.63;;;5.20;;
46363;SDS011;32071;49.036;9.344;2023-08-06T00:50:26;7.13;;;4.70;;
46363;SDS011;32071;49.036;9.344;2023-08-06T00:52:52;4.83;;;4.43;;
46363;SDS011;32071;49.036;9.344;2023-08-06T00:55:18;5.10;;;4.60;;
46363;SDS011;32071;49.036;9.344;2023-08-06T00:57:44;5.57;;;4.97;;
46363;SDS011;32071;49.036;9.344;2023-08-06T01:00:10;5.57;;;5.07;;
46363;SDS011;32071;49.036;9.344;2023-08-06T01:02:36;6.70;;;5.23;;
46363;SDS011;32071;49.036;9.344;2023-08-06T01:05:02;7.00;;;5.20;;
46363;SDS011;32071;49.036;9.344;2023-08-06T01:08:30;6.23;;;5.63;;
46363;SDS011;32071;49.036;9.344;2023-08-06T01:16:00;5.57;;;4.93;;
46363;SDS011;32071;49.036;9.344;2023-08-06T01:18:28;6.03;;;5.07;;
46363;SDS011;32071;49.036;9.344;2023-08-06T01:20:54;7.30;;;5.70;;
46363;SDS011;32071;49.036;9.344;2023-08-06T01:23:19;5.50;;;5.00;;
46363;SDS011;32071;49.036;9.344;2023-08-06T01:25:49;5.40;;;4.87;;
46363;SDS011;32071;49.036;9.344;2023-08-06T01:31:27;6.20;;;5.47;;
46363;SDS011;32071;49.036;9.344;2023-08-06T01:33:58;11.63;;;5.33;;
46363;SDS011;32071;49.036;9.344;2023-08-06T01:36:24;5.93;;;5.40;;
46363;SDS011;32071;49.036;9.344;2023-08-06T01:38:51;7.50;;;6.00;;
46363;SDS011;32071;49.036;9.344;2023-08-06T01:41:17;6.77;;;5.70;;
46363;SDS011;32071;49.036;9.344;2023-08-06T01:43:43;14.33;;;6.07;;
46363;SDS011;32071;49.036;9.344;2023-08-06T01:46:09;7.97;;;6.90;;
46363;SDS011;32071;49.036;9.344;2023-08-06T01:48:35;6.90;;;6.30;;
46363;SDS011;32071;49.036;9.344;2023-08-06T01:51:00;7.73;;;6.27;;
46363;SDS011;32071;49.036;9.344;2023-08-06T01:53:28;7.73;;;6.63;;
46363;SDS011;32071;49.036;9.344;2023-08-06T01:55:54;8.77;;;6.50;;
46363;SDS011;32071;49.036;9.344;2023-08-06T01:58:19;9.50;;;6.23;;
46363;SDS011;32071;49.036;9.344;2023-08-06T02:00:45;7.10;;;6.40;;
46363;SDS011;32071;49.036;9.344;2023-08-06T02:03:10;7.27;;;6.50;;
46363;SDS011;32071;49.036;9.344;2023-08-06T02:05:36;10.67;;;7.00;;
46363;SDS011;32071;49.036;9.344;2023-08-06T02:08:01;7.57;;;6.67;;
46363;SDS011;32071;49.036;9.344;2023-08-06T02:10:27;7.77;;;6.97;;
46363;SDS011;32071;49.036;9.344;2023-08-06T02:12:52;7.17;;;6.47;;
46363;SDS011;32071;49.036;9.344;2023-08-06T02:15:18;7.83;;;6.93;;
46363;SDS011;32071;49.036;9.344;2023-08-06T02:17:43;8.37;;;7.27;;
46363;SDS011;32071;49.036;9.344;2023-08-06T02:20:09;7.23;;;6.53;;
46363;SDS011;32071;49.036;9.344;2023-08-06T02:22:35;8.07;;;6.90;;
46363;SDS011;32071;49.036;9.344;2023-08-06T02:25:00;9.63;;;6.90;;
46363;SDS011;32071;49.036;9.344;2023-08-06T02:27:26;7.40;;;6.60;;
46363;SDS011;32071;49.036;9.344;2023-08-06T02:29:51;7.57;;;6.87;;
46363;SDS011;32071;49.036;9.344;2023-08-06T02:32:17;7.90;;;6.20;;
46363;SDS011;32071;49.036;9.344;2023-08-06T02:34:42;8.00;;;7.20;;
46363;SDS011;32071;49.036;9.344;2023-08-06T02:37:08;6.93;;;6.03;;
46363;SDS011;32071;49.036;9.344;2023-08-06T02:39:34;8.57;;;6.10;;
46363;SDS011;32071;49.036;9.344;2023-08-06T02:42:00;7.30;;;5.77;;
46363;SDS011;32071;49.036;9.344;2023-08-06T02:44:29;10.13;;;5.80;;
46363;SDS011;32071;49.036;9.344;2023-08-06T02:46:54;6.10;;;5.50;;
46363;SDS011;32071;49.036;9.344;2023-08-06T02:49:20;6.93;;;5.80;;
46363;SDS011;32071;49.036;9.344;2023-08-06T02:51:45;6.93;;;6.00;;
46363;SDS011;32071;49.036;9.344;2023-08-06T02:54:11;6.73;;;6.03;;
46363;SDS011;32071;49.036;9.344;2023-08-06T02:56:36;6.67;;;5.93;;
46363;SDS011;32071;49.036;9.344;2023-08-06T02:59:03;6.10;;;5.17;;
46363;SDS011;32071;49.036;9.344;2023-08-06T03:01:28;7.97;;;6.17;;
46363;SDS011;32071;49.036;9.344;2023-08-06T03:03:54;7.20;;;5.10;;
46363;SDS011;32071;49.036;9.344;2023-08-06T03:06:20;4.83;;;4.40;;
46363;SDS011;32071;49.036;9.344;2023-08-06T03:08:45;5.13;;;4.63;;
46363;SDS011;32071;49.036;9.344;2023-08-06T03:11:11;5.80;;;5.23;;
46363;SDS011;32071;49.036;9.344;2023-08-06T03:13:36;6.00;;;5.07;;
46363;SDS011;32071;49.036;9.344;2023-08-06T03:16:02;4.60;;;4.20;;
46363;SDS011;32071;49.036;9.344;2023-08-06T03:18:28;5.13;;;4.67;;
46363;SDS011;32071;49.036;9.344;2023-08-06T03:20:53;6.80;;;4.73;;
46363;SDS011;32071;49.036;9.344;2023-08-06T03:23:19;5.50;;;5.00;;
46363;SDS011;32071;49.036;9.344;2023-08-06T03:25:45;5.07;;;4.57;;
46363;SDS011;32071;49.036;9.344;2023-08-06T03:28:11;4.73;;;4.27;;
46363;SDS011;32071;49.036;9.344;2023-08-06T03:30:37;7.77;;;4.63;;
46363;SDS011;32071;49.036;9.344;2023-08-06T03:33:03;5.30;;;4.80;;
46363;SDS011;32071;49.036;9.344;2023-08-06T03:35:28;5.43;;;4.60;;
46363;SDS011;32071;49.036;9.344;2023-08-06T03:37:54;6.63;;;5.83;;
46363;SDS011;32071;49.036;9.344;2023-08-06T03:40:20;5.47;;;4.97;;
46363;SDS011;32071;49.036;9.344;2023-08-06T03:42:45;5.90;;;5.30;;
46363;SDS011;32071;49.036;9.344;2023-08-06T03:45:11;6.13;;;5.23;;
46363;SDS011;32071;49.036;9.344;2023-08-06T03:47:36;7.57;;;6.00;;
46363;SDS011;32071;49.036;9.344;2023-08-06T03:50:02;5.87;;;5.17;;
46363;SDS011;32071;49.036;9.344;2023-08-06T03:52:28;7.30;;;4.20;;
46363;SDS011;32071;49.036;9.344;2023-08-06T03:54:53;6.60;;;5.27;;
46363;SDS011;32071;49.036;9.344;2023-08-06T03:57:19;5.37;;;4.87;;
46363;SDS011;32071;49.036;9.344;2023-08-06T03:59:45;6.57;;;4.77;;
46363;SDS011;32071;49.036;9.344;2023-08-06T04:02:10;6.93;;;5.10;;
46363;SDS011;32071;49.036;9.344;2023-08-06T04:04:36;6.20;;;4.53;;
46363;SDS011;32071;49.036;9.344;2023-08-06T04:07:01;5.73;;;5.23;;
46363;SDS011;32071;49.036;9.344;2023-08-06T04:09:30;5.90;;;4.80;;
46363;SDS011;32071;49.036;9.344;2023-08-06T04:11:55;6.13;;;5.40;;
46363;SDS011;32071;49.036;9.344;2023-08-06T04:14:23;4.87;;;4.47;;
46363;SDS011;32071;49.036;9.344;2023-08-06T04:16:49;5.43;;;4.93;;
46363;SDS011;32071;49.036;9.344;2023-08-06T04:19:14;10.50;;;5.57;;
46363;SDS011;32071;49.036;9.344;2023-08-06T04:21:40;5.57;;;5.07;;
46363;SDS011;32071;49.036;9.344;2023-08-06T04:24:05;7.67;;;5.60;;
46363;SDS011;32071;49.036;9.344;2023-08-06T04:26:31;6.13;;;5.40;;
46363;SDS011;32071;49.036;9.344;2023-08-06T04:28:57;4.67;;;4.27;;
46363;SDS011;32071;49.036;9.344;2023-08-06T04:31:22;5.20;;;4.70;;
46363;SDS011;32071;49.036;9.344;2023-08-06T04:33:48;5.73;;;4.63;;
46363;SDS011;32071;49.036;9.344;2023-08-06T04:36:14;8.40;;;4.50;;
46363;SDS011;32071;49.036;9.344;2023-08-06T04:38:39;5.43;;;4.50;;
46363;SDS011;32071;49.036;9.344;2023-08-06T04:41:09;5.10;;;4.43;;
46363;SDS011;32071;49.036;9.344;2023-08-06T04:43:35;5.33;;;4.67;;
46363;SDS011;32071;49.036;9.344;2023-08-06T04:46:01;7.93;;;5.20;;
46363;SDS011;32071;49.036;9.344;2023-08-06T04:48:26;6.23;;;4.90;;
46363;SDS011;32071;49.036;9.344;2023-08-06T04:50:52;7.27;;;5.07;;
46363;SDS011;32071;49.036;9.344;2023-08-06T04:53:18;6.03;;;4.90;;
46363;SDS011;32071;49.036;9.344;2023-08-06T04:55:43;4.80;;;4.40;;
46363;SDS011;32071;49.036;9.344;2023-08-06T04:58:09;7.57;;;4.43;;
46363;SDS011;32071;49.036;9.344;2023-08-06T05:00:35;4.60;;;4.20;;
46363;SDS011;32071;49.036;9.344;2023-08-06T05:03:00;7.17;;;3.97;;
46363;SDS011;32071;49.036;9.344;2023-08-06T05:05:26;5.23;;;4.37;;
46363;SDS011;32071;49.036;9.344;2023-08-06T05:07:53;3.20;;;2.50;;
46363;SDS011;32071;49.036;9.344;2023-08-06T05:10:20;4.40;;;2.90;;
46363;SDS011;32071;49.036;9.344;2023-08-06T05:12:46;2.63;;;2.37;;
46363;SDS011;32071;49.036;9.344;2023-08-06T05:15:11;3.27;;;2.40;;
46363;SDS011;32071;49.036;9.344;2023-08-06T05:17:37;3.90;;;2.73;;
46363;SDS011;32071;49.036;9.344;2023-08-06T05:20:03;2.60;;;1.90;;
46363;SDS011;32071;49.036;9.344;2023-08-06T05:22:28;1.63;;;1.53;;
46363;SDS011;32071;49.036;9.344;2023-08-06T05:24:54;3.50;;;2.10;;
46363;SDS011;32071;49.036;9.344;2023-08-06T05:27:19;2.60;;;2.20;;
46363;SDS011;32071;49.036;9.344;2023-08-06T05:29:45;3.77;;;1.73;;
46363;SDS011;32071;49.036;9.344;2023-08-06T05:32:11;3.53;;;2.37;;
46363;SDS011;32071;49.036;9.344;2023-08-06T05:34:36;2.37;;;1.93;;
46363;SDS011;32071;49.036;9.344;2023-08-06T05:37:02;1.87;;;1.63;;
46363;SDS011;32071;49.036;9.344;2023-08-06T05:39:28;2.43;;;1.47;;
46363;SDS011;32071;49.036;9.344;2023-08-06T05:41:55;2.13;;;1.60;;
46363;SDS011;32071;49.036;9.344;2023-08-06T05:44:21;2.90;;;1.80;;
46363;SDS011;32071;49.036;9.344;2023-08-06T05:46:48;2.03;;;1.53;;
46363;SDS011;32071;49.036;9.344;2023-08-06T05:49:14;2.33;;;1.73;;
46363;SDS011;32071;49.036;9.344;2023-08-06T05:51:40;3.23;;;1.30;;
46363;SDS011;32071;49.036;9.344;2023-08-06T05:54:05;3.03;;;1.90;;
46363;SDS011;32071;49.036;9.344;2023-08-06T05:56:31;4.30;;;1.90;;
46363;SDS011;32071;49.036;9.344;2023-08-06T05:58:56;1.80;;;1.70;;
46363;SDS011;32071;49.036;9.344;2023-08-06T06:01:22;1.63;;;1.53;;
46363;SDS011;32071;49.036;9.344;2023-08-06T06:03:48;2.00;;;1.77;;
46363;SDS011;32071;49.036;9.344;2023-08-06T06:06:13;1.90;;;1.70;;
46363;SDS011;32071;49.036;9.344;2023-08-06T06:08:39;1.57;;;1.30;;
46363;SDS011;32071;49.036;9.344;2023-08-06T06:11:05;1.87;;;1.50;;
46363;SDS011;32071;49.036;9.344;2023-08-06T06:13:30;3.20;;;1.80;;
46363;SDS011;32071;49.036;9.344;2023-08-06T06:15:56;3.07;;;1.37;;
46363;SDS011;32071;49.036;9.344;2023-08-06T06:18:22;3.70;;;1.70;;
46363;SDS011;32071;49.036;9.344;2023-08-06T06:20:47;5.03;;;1.33;;
46363;SDS011;32071;49.036;9.344;2023-08-06T06:23:13;2.03;;;1.50;;
46363;SDS011;32071;49.036;9.344;2023-08-06T06:25:48;3.50;;;2.70;;
46363;SDS011;32071;49.036;9.344;2023-08-06T06:28:18;1.53;;;1.40;;
46363;SDS011;32071;49.036;9.344;2023-08-06T06:30:44;1.43;;;1.30;;
46363;SDS011;32071;49.036;9.344;2023-08-06T06:33:09;3.00;;;1.60;;
46363;SDS011;32071;49.036;9.344;2023-08-06T06:35:35;1.57;;;1.20;;
46363;SDS011;32071;49.036;9.344;2023-08-06T06:38:01;1.47;;;1.20;;
46363;SDS011;32071;49.036;9.344;2023-08-06T06:40:27;2.27;;;1.13;;
46363;SDS011;32071;49.036;9.344;2023-08-06T06:42:53;3.67;;;1.60;;
46363;SDS011;32071;49.036;9.344;2023-08-06T06:45:18;2.57;;;1.53;;
46363;SDS011;32071;49.036;9.344;2023-08-06T06:47:44;1.30;;;1.00;;
46363;SDS011;32071;49.036;9.344;2023-08-06T06:50:09;2.00;;;1.43;;
46363;SDS011;32071;49.036;9.344;2023-08-06T06:52:35;2.40;;;1.47;;
46363;SDS011;32071;49.036;9.344;2023-08-06T06:55:00;1.53;;;1.27;;
46363;SDS011;32071;49.036;9.344;2023-08-06T06:57:26;7.60;;;1.60;;
46363;SDS011;32071;49.036;9.344;2023-08-06T06:59:52;2.33;;;1.57;;
46363;SDS011;32071;49.036;9.344;2023-08-06T07:02:17;2.57;;;1.70;;
46363;SDS011;32071;49.036;9.344;2023-08-06T07:04:43;1.70;;;1.57;;
46363;SDS011;32071;49.036;9.344;2023-08-06T07:07:08;2.50;;;1.50;;
46363;SDS011;32071;49.036;9.344;2023-08-06T07:09:35;2.50;;;1.70;;
46363;SDS011;32071;49.036;9.344;2023-08-06T07:12:01;2.20;;;1.80;;
46363;SDS011;32071;49.036;9.344;2023-08-06T07:14:28;3.33;;;1.77;;
46363;SDS011;32071;49.036;9.344;2023-08-06T07:16:54;2.93;;;1.40;;
46363;SDS011;32071;49.036;9.344;2023-08-06T07:19:19;2.33;;;1.47;;
46363;SDS011;32071;49.036;9.344;2023-08-06T07:21:45;2.63;;;1.97;;
46363;SDS011;32071;49.036;9.344;2023-08-06T07:24:11;1.93;;;1.53;;
46363;SDS011;32071;49.036;9.344;2023-08-06T07:26:36;2.70;;;1.43;;
46363;SDS011;32071;49.036;9.344;2023-08-06T07:29:02;1.43;;;1.10;;
46363;SDS011;32071;49.036;9.344;2023-08-06T07:31:28;1.40;;;1.30;;
46363;SDS011;32071;49.036;9.344;2023-08-06T07:33:53;1.63;;;1.30;;
46363;SDS011;32071;49.036;9.344;2023-08-06T07:36:20;1.20;;;1.10;;
46363;SDS011;32071;49.036;9.344;2023-08-06T07:38:45;2.57;;;1.10;;
46363;SDS011;32071;49.036;9.344;2023-08-06T07:41:11;1.20;;;1.00;;
46363;SDS011;32071;49.036;9.344;2023-08-06T07:43:36;1.73;;;0.80;;
46363;SDS011;32071;49.036;9.344;2023-08-06T07:46:02;1.83;;;1.07;;
46363;SDS011;32071;49.036;9.344;2023-08-06T07:48:28;0.93;;;0.93;;
46363;SDS011;32071;49.036;9.344;2023-08-06T07:50:54;2.20;;;1.17;;
46363;SDS011;32071;49.036;9.344;2023-08-06T07:53:21;0.80;;;0.80;;
46363;SDS011;32071;49.036;9.344;2023-08-06T07:55:49;1.20;;;1.10;;
46363;SDS011;32071;49.036;9.344;2023-08-06T07:58:16;3.00;;;0.87;;
46363;SDS011;32071;49.036;9.344;2023-08-06T08:00:42;0.77;;;0.77;;
46363;SDS011;32071;49.036;9.344;2023-08-06T08:03:10;0.77;;;0.77;;
46363;SDS011;32071;49.036;9.344;2023-08-06T08:05:39;3.03;;;0.60;;
46363;SDS011;32071;49.036;9.344;2023-08-06T08:08:05;0.50;;;0.47;;
46363;SDS011;32071;49.036;9.344;2023-08-06T08:10:32;1.33;;;0.70;;
46363;SDS011;32071;49.036;9.344;2023-08-06T08:12:57;0.80;;;0.80;;
46363;SDS011;32071;49.036;9.344;2023-08-06T08:15:24;1.63;;;0.57;;
46363;SDS011;32071;49.036;9.344;2023-08-06T08:17:51;1.20;;;1.10;;
46363;SDS011;32071;49.036;9.344;2023-08-06T08:20:17;0.80;;;0.67;;
46363;SDS011;32071;49.036;9.344;2023-08-06T08:22:43;0.87;;;0.87;;
46363;SDS011;32071;49.036;9.344;2023-08-06T08:25:08;1.17;;;1.07;;
46363;SDS011;32071;49.036;9.344;2023-08-06T08:27:34;0.87;;;0.87;;
46363;SDS011;32071;49.036;9.344;2023-08-06T08:29:59;0.70;;;0.70;;
46363;SDS011;32071;49.036;9.344;2023-08-06T08:32:25;1.37;;;0.73;;
46363;SDS011;32071;49.036;9.344;2023-08-06T08:34:50;0.67;;;0.67;;
46363;SDS011;32071;49.036;9.344;2023-08-06T08:37:16;2.00;;;0.60;;
46363;SDS011;32071;49.036;9.344;2023-08-06T08:39:41;0.50;;;0.50;;
46363;SDS011;32071;49.036;9.344;2023-08-06T08:42:07;0.70;;;0.70;;
46363;SDS011;32071;49.036;9.344;2023-08-06T08:44:34;1.90;;;0.50;;
46363;SDS011;32071;49.036;9.344;2023-08-06T08:47:04;0.57;;;0.53;;
46363;SDS011;32071;49.036;9.344;2023-08-06T08:49:36;1.33;;;0.60;;
46363;SDS011;32071;49.036;9.344;2023-08-06T08:52:03;0.80;;;0.80;;
46363;SDS011;32071;49.036;9.344;2023-08-06T08:54:34;0.50;;;0.50;;
46363;SDS011;32071;49.036;9.344;2023-08-06T08:57:02;1.33;;;0.63;;
46363;SDS011;32071;49.036;9.344;2023-08-06T08:59:28;0.93;;;0.57;;
46363;SDS011;32071;49.036;9.344;2023-08-06T09:01:54;0.60;;;0.60;;
46363;SDS011;32071;49.036;9.344;2023-08-06T09:04:20;0.50;;;0.50;;
46363;SDS011;32071;49.036;9.344;2023-08-06T09:06:47;0.40;;;0.40;;
46363;SDS011;32071;49.036;9.344;2023-08-06T09:09:17;0.40;;;0.40;;
46363;SDS011;32071;49.036;9.344;2023-08-06T09:11:58;0.80;;;0.40;;
46363;SDS011;32071;49.036;9.344;2023-08-06T09:14:27;0.40;;;0.30;;
46363;SDS011;32071;49.036;9.344;2023-08-06T09:16:52;0.40;;;0.40;;
46363;SDS011;32071;49.036;9.344;2023-08-06T09:19:18;1.03;;;0.57;;
46363;SDS011;32071;49.036;9.344;2023-08-06T09:21:45;0.40;;;0.30;;
46363;SDS011;32071;49.036;9.344;2023-08-06T09:24:13;0.50;;;0.30;;
46363;SDS011;32071;49.036;9.344;2023-08-06T09:26:39;0.40;;;0.40;;
46363;SDS011;32071;49.036;9.344;2023-08-06T09:29:05;0.40;;;0.30;;
46363;SDS011;32071;49.036;9.344;2023-08-06T09:31:33;0.40;;;0.30;;
46363;SDS011;32071;49.036;9.344;2023-08-06T09:34:06;0.53;;;0.40;;
46363;SDS011;32071;49.036;9.344;2023-08-06T09:36:47;0.40;;;0.30;;
46363;SDS011;32071;49.036;9.344;2023-08-06T09:39:16;0.67;;;0.40;;
46363;SDS011;32071;49.036;9.344;2023-08-06T09:41:42;0.40;;;0.30;;
46363;SDS011;32071;49.036;9.344;2023-08-06T09:44:18;0.40;;;0.40;;
46363;SDS011;32071;49.036;9.344;2023-08-06T09:46:48;1.00;;;0.50;;
46363;SDS011;32071;49.036;9.344;2023-08-06T09:49:14;0.40;;;0.40;;
46363;SDS011;32071;49.036;9.344;2023-08-06T09:51:40;0.40;;;0.40;;
46363;SDS011;32071;49.036;9.344;2023-08-06T09:54:06;0.50;;;0.50;;
46363;SDS011;32071;49.036;9.344;2023-08-06T09:56:33;0.77;;;0.60;;
46363;SDS011;32071;49.036;9.344;2023-08-06T09:59:03;0.50;;;0.50;;
46363;SDS011;32071;49.036;9.344;2023-08-06T10:01:31;0.50;;;0.50;;
46363;SDS011;32071;49.036;9.344;2023-08-06T10:03:59;0.87;;;0.50;;
46363;SDS011;32071;49.036;9.344;2023-08-06T10:06:26;0.50;;;0.50;;
46363;SDS011;32071;49.036;9.344;2023-08-06T10:08:53;0.93;;;0.40;;
46363;SDS011;32071;49.036;9.344;2023-08-06T10:11:18;1.20;;;0.40;;
46363;SDS011;32071;49.036;9.344;2023-08-06T10:13:48;0.90;;;0.40;;
46363;SDS011;32071;49.036;9.344;2023-08-06T10:16:18;0.70;;;0.70;;
46363;SDS011;32071;49.036;9.344;2023-08-06T10:18:45;0.47;;;0.47;;
46363;SDS011;32071;49.036;9.344;2023-08-06T10:21:13;0.40;;;0.40;;
46363;SDS011;32071;49.036;9.344;2023-08-06T10:23:40;0.97;;;0.40;;
46363;SDS011;32071;49.036;9.344;2023-08-06T10:26:06;0.40;;;0.40;;
46363;SDS011;32071;49.036;9.344;2023-08-06T10:28:36;0.40;;;0.30;;
46363;SDS011;32071;49.036;9.344;2023-08-06T10:31:02;0.50;;;0.33;;
46363;SDS011;32071;49.036;9.344;2023-08-06T10:33:41;0.40;;;0.40;;
46363;SDS011;32071;49.036;9.344;2023-08-06T10:36:08;2.30;;;0.70;;
46363;SDS011;32071;49.036;9.344;2023-08-06T10:38:35;0.40;;;0.40;;
46363;SDS011;32071;49.036;9.344;2023-08-06T10:41:08;0.50;;;0.40;;
46363;SDS011;32071;49.036;9.344;2023-08-06T10:44:06;0.60;;;0.60;;
46363;SDS011;32071;49.036;9.344;2023-08-06T10:46:33;0.83;;;0.67;;
46363;SDS011;32071;49.036;9.344;2023-08-06T10:48:59;0.40;;;0.40;;
46363;SDS011;32071;49.036;9.344;2023-08-06T10:51:24;0.40;;;0.40;;
46363;SDS011;32071;49.036;9.344;2023-08-06T10:53:50;1.03;;;0.70;;
46363;SDS011;32071;49.036;9.344;2023-08-06T10:56:17;0.60;;;0.60;;
46363;SDS011;32071;49.036;9.344;2023-08-06T10:58:44;1.37;;;0.40;;
46363;SDS011;32071;49.036;9.344;2023-08-06T11:01:10;0.40;;;0.40;;
46363;SDS011;32071;49.036;9.344;2023-08-06T11:03:36;0.53;;;0.53;;
46363;SDS011;32071;49.036;9.344;2023-08-06T11:06:03;0.70;;;0.60;;
46363;SDS011;32071;49.036;9.344;2023-08-06T11:08:32;0.53;;;0.53;;
46363;SDS011;32071;49.036;9.344;2023-08-06T11:11:17;0.50;;;0.50;;
46363;SDS011;32071;49.036;9.344;2023-08-06T11:13:43;0.50;;;0.50;;
46363;SDS011;32071;49.036;9.344;2023-08-06T11:16:11;0.70;;;0.50;;
46363;SDS011;32071;49.036;9.344;2023-08-06T11:18:42;0.50;;;0.50;;
46363;SDS011;32071;49.036;9.344;2023-08-06T11:21:07;0.60;;;0.60;;
46363;SDS011;32071;49.036;9.344;2023-08-06T11:23:34;0.70;;;0.70;;
46363;SDS011;32071;49.036;9.344;2023-08-06T11:26:00;0.80;;;0.80;;
46363;SDS011;32071;49.036;9.344;2023-08-06T11:28:25;0.83;;;0.83;;
46363;SDS011;32071;49.036;9.344;2023-08-06T11:30:51;1.00;;;0.80;;
46363;SDS011;32071;49.036;9.344;2023-08-06T11:33:21;1.20;;;1.10;;
46363;SDS011;32071;49.036;9.344;2023-08-06T11:35:47;2.53;;;1.00;;
46363;SDS011;32071;49.036;9.344;2023-08-06T11:38:14;1.40;;;1.10;;
46363;SDS011;32071;49.036;9.344;2023-08-06T11:40:39;1.73;;;1.00;;
46363;SDS011;32071;49.036;9.344;2023-08-06T11:43:05;4.60;;;1.50;;
46363;SDS011;32071;49.036;9.344;2023-08-06T11:45:31;1.67;;;1.33;;
46363;SDS011;32071;49.036;9.344;2023-08-06T11:48:00;1.90;;;1.53;;
46363;SDS011;32071;49.036;9.344;2023-08-06T11:50:26;1.33;;;1.23;;
46363;SDS011;32071;49.036;9.344;2023-08-06T11:52:56;1.07;;;1.03;;
46363;SDS011;32071;49.036;9.344;2023-08-06T11:55:24;1.60;;;1.30;;
46363;SDS011;32071;49.036;9.344;2023-08-06T11:57:50;1.23;;;1.13;;
46363;SDS011;32071;49.036;9.344;2023-08-06T12:00:16;1.50;;;1.27;;
46363;SDS011;32071;49.036;9.344;2023-08-06T12:02:45;1.63;;;1.53;;
46363;SDS011;32071;49.036;9.344;2023-08-06T12:07:44;1.50;;;1.40;;
46363;SDS011;32071;49.036;9.344;2023-08-06T12:10:11;1.83;;;1.70;;
46363;SDS011;32071;49.036;9.344;2023-08-06T12:12:38;2.80;;;1.67;;
46363;SDS011;32071;49.036;9.344;2023-08-06T12:15:04;1.73;;;1.63;;
46363;SDS011;32071;49.036;9.344;2023-08-06T12:17:31;1.77;;;1.60;;
46363;SDS011;32071;49.036;9.344;2023-08-06T12:19:57;2.30;;;2.00;;
46363;SDS011;32071;49.036;9.344;2023-08-06T12:22:23;2.30;;;2.10;;
46363;SDS011;32071;49.036;9.344;2023-08-06T12:24:48;2.23;;;1.80;;
46363;SDS011;32071;49.036;9.344;2023-08-06T12:27:14;4.83;;;2.47;;
46363;SDS011;32071;49.036;9.344;2023-08-06T12:29:46;2.10;;;1.90;;
46363;SDS011;32071;49.036;9.344;2023-08-06T12:32:13;3.50;;;2.60;;
46363;SDS011;32071;49.036;9.344;2023-08-06T12:34:39;5.40;;;2.83;;
46363;SDS011;32071;49.036;9.344;2023-08-06T12:37:08;3.70;;;2.90;;
46363;SDS011;32071;49.036;9.344;2023-08-06T12:39:34;4.90;;;3.10;;
46363;SDS011;32071;49.036;9.344;2023-08-06T12:42:01;4.17;;;3.50;;
46363;SDS011;32071;49.036;9.344;2023-08-06T12:44:27;4.70;;;3.57;;
46363;SDS011;32071;49.036;9.344;2023-08-06T12:46:53;7.63;;;3.33;;
46363;SDS011;32071;49.036;9.344;2023-08-06T12:49:19;5.73;;;3.47;;
46363;SDS011;32071;49.036;9.344;2023-08-06T12:51:48;4.63;;;3.50;;
46363;SDS011;32071;49.036;9.344;2023-08-06T12:54:16;5.10;;;3.20;;
46363;SDS011;32071;49.036;9.344;2023-08-06T12:56:43;3.37;;;2.70;;
46363;SDS011;32071;49.036;9.344;2023-08-06T12:59:09;4.40;;;3.20;;
46363;SDS011;32071;49.036;9.344;2023-08-06T13:01:34;4.00;;;3.60;;
46363;SDS011;32071;49.036;9.344;2023-08-06T13:04:00;4.03;;;3.63;;
46363;SDS011;32071;49.036;9.344;2023-08-06T13:06:26;7.30;;;3.67;;
46363;SDS011;32071;49.036;9.344;2023-08-06T13:08:51;7.33;;;4.17;;
46363;SDS011;32071;49.036;9.344;2023-08-06T13:11:17;8.87;;;4.30;;
46363;SDS011;32071;49.036;9.344;2023-08-06T13:13:44;5.33;;;3.77;;
46363;SDS011;32071;49.036;9.344;2023-08-06T13:16:09;6.80;;;4.13;;
46363;SDS011;32071;49.036;9.344;2023-08-06T13:18:36;4.70;;;3.90;;
46363;SDS011;32071;49.036;9.344;2023-08-06T13:21:02;5.13;;;3.17;;
46363;SDS011;32071;49.036;9.344;2023-08-06T13:23:27;3.97;;;3.60;;
46363;SDS011;32071;49.036;9.344;2023-08-06T13:25:53;4.73;;;3.00;;
46363;SDS011;32071;49.036;9.344;2023-08-06T13:28:20;3.40;;;3.10;;
46363;SDS011;32071;49.036;9.344;2023-08-06T13:30:45;6.50;;;3.00;;
46363;SDS011;32071;49.036;9.344;2023-08-06T13:33:11;2.87;;;2.60;;
46363;SDS011;32071;49.036;9.344;2023-08-06T13:35:37;3.30;;;2.50;;
46363;SDS011;32071;49.036;9.344;2023-08-06T13:38:03;3.60;;;2.60;;
46363;SDS011;32071;49.036;9.344;2023-08-06T13:40:29;4.50;;;2.80;;
46363;SDS011;32071;49.036;9.344;2023-08-06T13:42:57;3.63;;;2.30;;
46363;SDS011;32071;49.036;9.344;2023-08-06T13:45:23;3.00;;;2.70;;
46363;SDS011;32071;49.036;9.344;2023-08-06T13:47:48;3.40;;;2.83;;
46363;SDS011;32071;49.036;9.344;2023-08-06T13:50:14;6.30;;;2.70;;
46363;SDS011;32071;49.036;9.344;2023-08-06T13:52:39;4.57;;;2.83;;
46363;SDS011;32071;49.036;9.344;2023-08-06T13:55:05;2.37;;;2.00;;
46363;SDS011;32071;49.036;9.344;2023-08-06T13:57:32;2.80;;;1.87;;
46363;SDS011;32071;49.036;9.344;2023-08-06T13:59:58;2.60;;;2.13;;
46363;SDS011;32071;49.036;9.344;2023-08-06T14:02:24;2.10;;;1.90;;
46363;SDS011;32071;49.036;9.344;2023-08-06T14:04:50;2.50;;;1.77;;
46363;SDS011;32071;49.036;9.344;2023-08-06T14:07:17;2.40;;;1.70;;
46363;SDS011;32071;49.036;9.344;2023-08-06T14:09:42;1.57;;;1.47;;
46363;SDS011;32071;49.036;9.344;2023-08-06T14:12:09;3.00;;;2.07;;
46363;SDS011;32071;49.036;9.344;2023-08-06T14:14:35;1.93;;;1.80;;
46363;SDS011;32071;49.036;9.344;2023-08-06T14:17:00;2.80;;;2.00;;
46363;SDS011;32071;49.036;9.344;2023-08-06T14:19:26;2.60;;;2.03;;
46363;SDS011;32071;49.036;9.344;2023-08-06T14:21:52;5.10;;;2.20;;
46363;SDS011;32071;49.036;9.344;2023-08-06T14:24:18;2.07;;;1.87;;
46363;SDS011;32071;49.036;9.344;2023-08-06T14:26:44;2.53;;;1.77;;
46363;SDS011;32071;49.036;9.344;2023-08-06T14:29:09;3.83;;;1.70;;
46363;SDS011;32071;49.036;9.344;2023-08-06T14:31:35;2.17;;;1.93;;
46363;SDS011;32071;49.036;9.344;2023-08-06T14:34:00;2.87;;;2.20;;
46363;SDS011;32071;49.036;9.344;2023-08-06T14:36:27;4.20;;;2.00;;
46363;SDS011;32071;49.036;9.344;2023-08-06T14:38:52;2.13;;;1.93;;
46363;SDS011;32071;49.036;9.344;2023-08-06T14:41:18;1.87;;;1.77;;
46363;SDS011;32071;49.036;9.344;2023-08-06T14:43:43;1.73;;;1.63;;
46363;SDS011;32071;49.036;9.344;2023-08-06T14:46:09;3.90;;;2.20;;
46363;SDS011;32071;49.036;9.344;2023-08-06T14:48:34;2.03;;;1.80;;
46363;SDS011;32071;49.036;9.344;2023-08-06T14:51:00;2.03;;;1.83;;
46363;SDS011;32071;49.036;9.344;2023-08-06T14:53:26;3.60;;;1.80;;
46363;SDS011;32071;49.036;9.344;2023-08-06T14:55:51;1.43;;;1.33;;